Terminal Aerodrome Forecast
Issued by NWS Bismarck, ND

Home | Current Version | Previous Version | Graphics & Text | Print | Product List | Glossary On
Versions: 1 2 3 4 5 6 7 8 9 10 11 12 13 14 15 16 17 18 19 20
403
FTUS43 KBIS 191530 AAC
TAFBIS
TAF AMD
KBIS 191530Z 1916/2012 16015G25KT P6SM VCTS BKN120CB WS020/17040KT
     FM191800 18018KT P6SM VCTS BKN100CB
     FM192300 26009KT P6SM VCSH BKN110
     FM200100 30010KT P6SM OVC090
     FM200600 27008KT P6SM BKN080=

USA.gov is the U.S. government's official web portal to all federal, state and local government web resources and services.